Wednesday, August 15, 2018, 11:58 PM EDT
Back to Local

KDMH, Baltimore Downtown

Location: Baltimore, MD, United States Lat: 39.283
Local Time: 11:58 PM EDT ( 3:58 GMT) Lon: -76.617
Time Zone: US/Eastern Elev: 19 ft

Show me the last for .
Show Coded

Time T Td Feel RH Dir Speed Gust Alt SLP Vis Weather Sky Remarks
2018-08-15 22:54 82 68 85 62 - - - 30.04 30.03 0 None
2018-08-15 21:54 83 67 86 58 - - - 30.03 30.03 0 None
2018-08-15 20:54 84 67 87 56 - - - 30.01 30.01 0 None
2018-08-15 19:54 85 67 88 55 - - - 29.99 29.99 0 6-hr Min Temp (8pm): 84.9°F
6-hr Max Temp (8pm): 91.9°F
2018-08-15 18:54 88 66 91 48 - - - 29.97 29.97 0 None
2018-08-15 17:54 88 64 90 45 - - - 29.97 29.97 0 None
2018-08-15 16:54 90 63 92 40 - - - 29.98 29.98 0 None
2018-08-15 15:54 91 65 94 42 - - - 29.99 29.99 0 None
2018-08-15 14:54 90 64 93 42 - - - 30.00 29.99 0 None
2018-08-15 13:54 90 66 94 45 - - - 30.00 30.00 0 6-hr Min Temp (2pm): 75.0°F
6-hr Max Temp (2pm): 90.0°F
2018-08-15 12:54 88 66 91 48 - - - 30.01 30.01 0 None
2018-08-15 11:54 88 66 91 48 - - - 30.03 30.03 0 None
2018-08-15 10:54 86 66 89 51 - - - 30.03 30.02 0 None
2018-08-15 09:54 83 66 86 56 - - - 30.04 30.03 0 None
2018-08-15 08:54 79 67 82 66 - - - 30.02 30.02 0 None
2018-08-15 07:54 75 67 78 75 - - - 30.00 30.00 0 6-hr Min Temp (8am): 72.0°F
6-hr Max Temp (8am): 75.0°F
2018-08-15 06:54 72 66 76 81 - - - 29.97 29.97 0 None
2018-08-15 05:54 72 66 76 81 - - - 29.95 29.95 0 None
2018-08-15 04:54 73 66 77 78 - - - 29.95 29.95 0 None
2018-08-15 03:54 73 66 77 78 - - - 29.94 29.94 0 None
2018-08-15 02:54 74 65 77 73 - - - 29.94 29.93 0 None
2018-08-15 01:54 75 65 78 70 - - - 29.93 29.93 0 6-hr Min Temp (2am): 75.0°F
6-hr Max Temp (2am): 79.0°F
2018-08-15 00:54 76 66 79 71 - - - 29.96 29.96 0 24-hr Min Temp (1am): 69.1°F
24-hr Max Temp (1am): 86.0°F

Support USWX by starting your Amazon purchase here.